sensor_id;sensor_type;location;lat;lon;timestamp;P1;durP1;ratioP1;P2;durP2;ratioP2
71106;SDS011;58763;47.982;11.516;2023-03-01T00:01:52;26.55;;;14.48;;
71106;SDS011;58763;47.982;11.516;2023-03-01T00:04:18;28.52;;;14.57;;
71106;SDS011;58763;47.982;11.516;2023-03-01T00:06:43;27.15;;;15.18;;
71106;SDS011;58763;47.982;11.516;2023-03-01T00:09:15;23.80;;;13.73;;
71106;SDS011;58763;47.982;11.516;2023-03-01T00:11:41;28.80;;;14.40;;
71106;SDS011;58763;47.982;11.516;2023-03-01T00:14:08;27.40;;;15.02;;
71106;SDS011;58763;47.982;11.516;2023-03-01T00:16:35;27.38;;;14.70;;
71106;SDS011;58763;47.982;11.516;2023-03-01T00:19:04;28.50;;;14.82;;
71106;SDS011;58763;47.982;11.516;2023-03-01T00:21:31;27.00;;;14.48;;
71106;SDS011;58763;47.982;11.516;2023-03-01T00:23:57;30.58;;;15.10;;
71106;SDS011;58763;47.982;11.516;2023-03-01T00:26:23;29.25;;;15.18;;
71106;SDS011;58763;47.982;11.516;2023-03-01T00:28:50;27.95;;;14.70;;
71106;SDS011;58763;47.982;11.516;2023-03-01T00:31:18;27.48;;;14.85;;
71106;SDS011;58763;47.982;11.516;2023-03-01T00:33:46;28.30;;;14.57;;
71106;SDS011;58763;47.982;11.516;2023-03-01T00:36:12;30.45;;;15.40;;
71106;SDS011;58763;47.982;11.516;2023-03-01T00:38:41;28.27;;;14.95;;
71106;SDS011;58763;47.982;11.516;2023-03-01T00:41:10;27.15;;;14.32;;
71106;SDS011;58763;47.982;11.516;2023-03-01T00:43:37;26.40;;;14.55;;
71106;SDS011;58763;47.982;11.516;2023-03-01T00:46:07;30.02;;;14.85;;
71106;SDS011;58763;47.982;11.516;2023-03-01T00:48:35;28.05;;;13.90;;
71106;SDS011;58763;47.982;11.516;2023-03-01T00:51:20;28.08;;;14.85;;
71106;SDS011;58763;47.982;11.516;2023-03-01T00:53:49;29.27;;;15.13;;
71106;SDS011;58763;47.982;11.516;2023-03-01T00:56:16;30.33;;;15.75;;
71106;SDS011;58763;47.982;11.516;2023-03-01T00:58:41;30.45;;;15.40;;
71106;SDS011;58763;47.982;11.516;2023-03-01T01:01:12;29.00;;;15.32;;
71106;SDS011;58763;47.982;11.516;2023-03-01T01:03:49;27.55;;;15.07;;
71106;SDS011;58763;47.982;11.516;2023-03-01T01:06:19;29.50;;;15.05;;
71106;SDS011;58763;47.982;11.516;2023-03-01T01:11:25;29.75;;;15.15;;
71106;SDS011;58763;47.982;11.516;2023-03-01T01:13:51;26.13;;;14.48;;
71106;SDS011;58763;47.982;11.516;2023-03-01T01:16:17;29.20;;;15.05;;
71106;SDS011;58763;47.982;11.516;2023-03-01T01:18:45;30.17;;;15.55;;
71106;SDS011;58763;47.982;11.516;2023-03-01T01:21:12;30.35;;;15.63;;
71106;SDS011;58763;47.982;11.516;2023-03-01T01:23:40;30.88;;;15.57;;
71106;SDS011;58763;47.982;11.516;2023-03-01T01:26:07;29.73;;;15.82;;
71106;SDS011;58763;47.982;11.516;2023-03-01T01:28:38;32.45;;;15.02;;
71106;SDS011;58763;47.982;11.516;2023-03-01T01:31:04;27.75;;;15.05;;
71106;SDS011;58763;47.982;11.516;2023-03-01T01:33:30;31.10;;;15.68;;
71106;SDS011;58763;47.982;11.516;2023-03-01T01:35:57;31.10;;;15.18;;
71106;SDS011;58763;47.982;11.516;2023-03-01T01:38:23;28.08;;;14.32;;
71106;SDS011;58763;47.982;11.516;2023-03-01T01:40:49;31.92;;;16.27;;
71106;SDS011;58763;47.982;11.516;2023-03-01T01:43:20;28.38;;;14.43;;
71106;SDS011;58763;47.982;11.516;2023-03-01T01:45:45;28.15;;;15.32;;
71106;SDS011;58763;47.982;11.516;2023-03-01T01:48:12;31.85;;;16.08;;
71106;SDS011;58763;47.982;11.516;2023-03-01T01:50:41;28.17;;;15.40;;
71106;SDS011;58763;47.982;11.516;2023-03-01T01:53:14;29.40;;;14.70;;
71106;SDS011;58763;47.982;11.516;2023-03-01T01:55:53;28.92;;;15.48;;
71106;SDS011;58763;47.982;11.516;2023-03-01T01:58:23;29.08;;;15.15;;
71106;SDS011;58763;47.982;11.516;2023-03-01T02:00:50;29.85;;;14.98;;
71106;SDS011;58763;47.982;11.516;2023-03-01T02:03:22;27.40;;;15.05;;
71106;SDS011;58763;47.982;11.516;2023-03-01T02:05:57;28.85;;;15.23;;
71106;SDS011;58763;47.982;11.516;2023-03-01T02:08:43;32.17;;;14.88;;
71106;SDS011;58763;47.982;11.516;2023-03-01T02:11:10;28.52;;;14.93;;
71106;SDS011;58763;47.982;11.516;2023-03-01T02:13:39;26.90;;;14.65;;
71106;SDS011;58763;47.982;11.516;2023-03-01T02:16:08;28.38;;;14.95;;
71106;SDS011;58763;47.982;11.516;2023-03-01T02:18:35;30.95;;;15.43;;
71106;SDS011;58763;47.982;11.516;2023-03-01T02:24:01;28.67;;;15.32;;
71106;SDS011;58763;47.982;11.516;2023-03-01T02:26:55;31.15;;;15.18;;
71106;SDS011;58763;47.982;11.516;2023-03-01T02:29:24;29.65;;;15.25;;
71106;SDS011;58763;47.982;11.516;2023-03-01T02:31:52;30.25;;;15.43;;
71106;SDS011;58763;47.982;11.516;2023-03-01T02:34:23;28.73;;;15.10;;
71106;SDS011;58763;47.982;11.516;2023-03-01T02:36:59;29.60;;;15.70;;
71106;SDS011;58763;47.982;11.516;2023-03-01T02:39:33;29.70;;;15.85;;
71106;SDS011;58763;47.982;11.516;2023-03-01T02:42:07;31.45;;;16.30;;
71106;SDS011;58763;47.982;11.516;2023-03-01T02:44:38;29.65;;;15.32;;
71106;SDS011;58763;47.982;11.516;2023-03-01T02:47:04;28.27;;;15.80;;
71106;SDS011;58763;47.982;11.516;2023-03-01T02:49:32;28.55;;;15.80;;
71106;SDS011;58763;47.982;11.516;2023-03-01T02:54:56;31.38;;;15.88;;
71106;SDS011;58763;47.982;11.516;2023-03-01T02:57:32;28.58;;;15.68;;
71106;SDS011;58763;47.982;11.516;2023-03-01T03:00:02;28.95;;;15.57;;
71106;SDS011;58763;47.982;11.516;2023-03-01T03:02:44;29.50;;;15.05;;
71106;SDS011;58763;47.982;11.516;2023-03-01T03:05:12;28.58;;;15.68;;
71106;SDS011;58763;47.982;11.516;2023-03-01T03:07:46;31.13;;;15.98;;
71106;SDS011;58763;47.982;11.516;2023-03-01T03:10:20;29.77;;;15.52;;
71106;SDS011;58763;47.982;11.516;2023-03-01T03:12:50;28.25;;;15.23;;
71106;SDS011;58763;47.982;11.516;2023-03-01T03:17:45;29.13;;;15.27;;
71106;SDS011;58763;47.982;11.516;2023-03-01T03:20:12;29.83;;;15.85;;
71106;SDS011;58763;47.982;11.516;2023-03-01T03:22:47;29.23;;;15.10;;
71106;SDS011;58763;47.982;11.516;2023-03-01T03:25:14;27.38;;;15.15;;
71106;SDS011;58763;47.982;11.516;2023-03-01T03:27:41;28.05;;;15.25;;
71106;SDS011;58763;47.982;11.516;2023-03-01T03:30:10;29.25;;;16.08;;
71106;SDS011;58763;47.982;11.516;2023-03-01T03:32:39;33.17;;;15.93;;
71106;SDS011;58763;47.982;11.516;2023-03-01T03:35:05;30.48;;;16.33;;
71106;SDS011;58763;47.982;11.516;2023-03-01T03:37:41;33.28;;;17.02;;
71106;SDS011;58763;47.982;11.516;2023-03-01T03:40:25;33.45;;;15.45;;
71106;SDS011;58763;47.982;11.516;2023-03-01T03:42:51;32.00;;;15.88;;
71106;SDS011;58763;47.982;11.516;2023-03-01T03:45:17;29.10;;;15.75;;
71106;SDS011;58763;47.982;11.516;2023-03-01T03:47:43;30.75;;;15.88;;
71106;SDS011;58763;47.982;11.516;2023-03-01T03:50:10;29.77;;;15.80;;
71106;SDS011;58763;47.982;11.516;2023-03-01T03:52:37;33.13;;;15.98;;
71106;SDS011;58763;47.982;11.516;2023-03-01T03:55:02;32.35;;;15.95;;
71106;SDS011;58763;47.982;11.516;2023-03-01T03:57:29;30.73;;;16.27;;
71106;SDS011;58763;47.982;11.516;2023-03-01T03:59:54;32.42;;;16.75;;
71106;SDS011;58763;47.982;11.516;2023-03-01T04:02:20;30.02;;;15.57;;
71106;SDS011;58763;47.982;11.516;2023-03-01T04:04:50;32.60;;;16.73;;
71106;SDS011;58763;47.982;11.516;2023-03-01T04:07:18;27.50;;;15.05;;
71106;SDS011;58763;47.982;11.516;2023-03-01T04:09:44;30.63;;;15.73;;
71106;SDS011;58763;47.982;11.516;2023-03-01T04:12:09;29.83;;;16.10;;
71106;SDS011;58763;47.982;11.516;2023-03-01T04:14:35;28.45;;;15.30;;
71106;SDS011;58763;47.982;11.516;2023-03-01T04:17:01;32.20;;;16.15;;
71106;SDS011;58763;47.982;11.516;2023-03-01T04:19:33;30.83;;;16.00;;
71106;SDS011;58763;47.982;11.516;2023-03-01T04:22:02;32.92;;;16.90;;
71106;SDS011;58763;47.982;11.516;2023-03-01T04:24:34;29.05;;;15.93;;
71106;SDS011;58763;47.982;11.516;2023-03-01T04:27:01;31.55;;;16.40;;
71106;SDS011;58763;47.982;11.516;2023-03-01T04:29:27;30.42;;;15.68;;
71106;SDS011;58763;47.982;11.516;2023-03-01T04:31:53;33.92;;;16.60;;
71106;SDS011;58763;47.982;11.516;2023-03-01T04:34:19;30.05;;;15.95;;
71106;SDS011;58763;47.982;11.516;2023-03-01T04:36:45;29.63;;;16.30;;
71106;SDS011;58763;47.982;11.516;2023-03-01T04:39:10;31.08;;;15.95;;
71106;SDS011;58763;47.982;11.516;2023-03-01T04:41:39;29.05;;;15.93;;
71106;SDS011;58763;47.982;11.516;2023-03-01T04:44:06;29.95;;;15.02;;
71106;SDS011;58763;47.982;11.516;2023-03-01T04:46:32;30.08;;;16.15;;
71106;SDS011;58763;47.982;11.516;2023-03-01T04:48:57;29.80;;;16.05;;
71106;SDS011;58763;47.982;11.516;2023-03-01T04:51:23;33.05;;;16.50;;
71106;SDS011;58763;47.982;11.516;2023-03-01T04:53:49;30.08;;;16.67;;
71106;SDS011;58763;47.982;11.516;2023-03-01T04:56:15;33.25;;;16.55;;
71106;SDS011;58763;47.982;11.516;2023-03-01T04:58:41;30.20;;;16.02;;
71106;SDS011;58763;47.982;11.516;2023-03-01T05:01:12;30.60;;;16.77;;
71106;SDS011;58763;47.982;11.516;2023-03-01T05:03:43;31.35;;;17.30;;
71106;SDS011;58763;47.982;11.516;2023-03-01T05:06:10;31.50;;;17.10;;
71106;SDS011;58763;47.982;11.516;2023-03-01T05:08:37;31.05;;;16.17;;
71106;SDS011;58763;47.982;11.516;2023-03-01T05:11:03;31.67;;;16.27;;
71106;SDS011;58763;47.982;11.516;2023-03-01T05:13:30;30.48;;;16.63;;
71106;SDS011;58763;47.982;11.516;2023-03-01T05:15:57;32.33;;;16.70;;
71106;SDS011;58763;47.982;11.516;2023-03-01T05:18:24;35.42;;;17.58;;
71106;SDS011;58763;47.982;11.516;2023-03-01T05:20:55;30.73;;;15.80;;
71106;SDS011;58763;47.982;11.516;2023-03-01T05:23:23;31.38;;;16.65;;
71106;SDS011;58763;47.982;11.516;2023-03-01T05:25:49;32.00;;;16.80;;
71106;SDS011;58763;47.982;11.516;2023-03-01T05:28:15;32.63;;;16.42;;
71106;SDS011;58763;47.982;11.516;2023-03-01T05:30:41;30.67;;;16.90;;
71106;SDS011;58763;47.982;11.516;2023-03-01T05:33:07;30.45;;;15.88;;
71106;SDS011;58763;47.982;11.516;2023-03-01T05:35:39;32.50;;;16.50;;
71106;SDS011;58763;47.982;11.516;2023-03-01T05:38:09;37.53;;;16.60;;
71106;SDS011;58763;47.982;11.516;2023-03-01T05:40:39;34.47;;;17.40;;
71106;SDS011;58763;47.982;11.516;2023-03-01T05:43:05;32.65;;;16.83;;
71106;SDS011;58763;47.982;11.516;2023-03-01T05:45:32;32.42;;;15.82;;
71106;SDS011;58763;47.982;11.516;2023-03-01T05:47:58;31.20;;;16.42;;
71106;SDS011;58763;47.982;11.516;2023-03-01T05:50:25;30.55;;;15.40;;
71106;SDS011;58763;47.982;11.516;2023-03-01T05:53:12;31.88;;;16.77;;
71106;SDS011;58763;47.982;11.516;2023-03-01T05:55:40;30.60;;;16.27;;
71106;SDS011;58763;47.982;11.516;2023-03-01T05:58:10;33.00;;;16.83;;
71106;SDS011;58763;47.982;11.516;2023-03-01T06:00:38;32.67;;;16.48;;
71106;SDS011;58763;47.982;11.516;2023-03-01T06:03:03;32.75;;;16.67;;
71106;SDS011;58763;47.982;11.516;2023-03-01T06:05:29;31.83;;;16.20;;
71106;SDS011;58763;47.982;11.516;2023-03-01T06:07:58;32.40;;;16.02;;
71106;SDS011;58763;47.982;11.516;2023-03-01T06:10:25;33.75;;;17.30;;
71106;SDS011;58763;47.982;11.516;2023-03-01T06:12:50;35.20;;;16.40;;
71106;SDS011;58763;47.982;11.516;2023-03-01T06:15:16;33.10;;;16.23;;
71106;SDS011;58763;47.982;11.516;2023-03-01T06:17:43;33.58;;;16.38;;
71106;SDS011;58763;47.982;11.516;2023-03-01T06:20:14;31.75;;;16.15;;
71106;SDS011;58763;47.982;11.516;2023-03-01T06:22:44;34.20;;;17.77;;
71106;SDS011;58763;47.982;11.516;2023-03-01T06:25:10;33.70;;;17.38;;
71106;SDS011;58763;47.982;11.516;2023-03-01T06:27:38;32.15;;;16.23;;
71106;SDS011;58763;47.982;11.516;2023-03-01T06:30:03;34.10;;;16.75;;
71106;SDS011;58763;47.982;11.516;2023-03-01T06:32:29;34.70;;;16.63;;
71106;SDS011;58763;47.982;11.516;2023-03-01T06:34:56;31.63;;;15.77;;
71106;SDS011;58763;47.982;11.516;2023-03-01T06:37:23;31.67;;;16.80;;
71106;SDS011;58763;47.982;11.516;2023-03-01T06:39:49;32.13;;;16.23;;
71106;SDS011;58763;47.982;11.516;2023-03-01T06:42:15;32.55;;;16.52;;
71106;SDS011;58763;47.982;11.516;2023-03-01T06:44:41;33.63;;;16.98;;
71106;SDS011;58763;47.982;11.516;2023-03-01T06:47:06;32.08;;;16.15;;
71106;SDS011;58763;47.982;11.516;2023-03-01T06:49:32;34.72;;;17.10;;
71106;SDS011;58763;47.982;11.516;2023-03-01T06:51:57;33.13;;;17.23;;
71106;SDS011;58763;47.982;11.516;2023-03-01T06:54:23;35.40;;;17.38;;
71106;SDS011;58763;47.982;11.516;2023-03-01T06:56:49;34.83;;;17.33;;
71106;SDS011;58763;47.982;11.516;2023-03-01T06:59:15;36.35;;;17.58;;
71106;SDS011;58763;47.982;11.516;2023-03-01T07:01:41;31.65;;;16.75;;
71106;SDS011;58763;47.982;11.516;2023-03-01T07:04:07;33.60;;;16.52;;
71106;SDS011;58763;47.982;11.516;2023-03-01T07:06:33;39.08;;;17.95;;
71106;SDS011;58763;47.982;11.516;2023-03-01T07:08:58;33.78;;;16.65;;
71106;SDS011;58763;47.982;11.516;2023-03-01T07:11:24;33.67;;;16.48;;
71106;SDS011;58763;47.982;11.516;2023-03-01T07:13:50;32.80;;;16.98;;
71106;SDS011;58763;47.982;11.516;2023-03-01T07:16:15;35.28;;;16.83;;
71106;SDS011;58763;47.982;11.516;2023-03-01T07:18:41;34.15;;;17.02;;
71106;SDS011;58763;47.982;11.516;2023-03-01T07:21:07;33.00;;;16.17;;
71106;SDS011;58763;47.982;11.516;2023-03-01T07:23:36;34.97;;;17.10;;
71106;SDS011;58763;47.982;11.516;2023-03-01T07:26:01;33.03;;;16.25;;
71106;SDS011;58763;47.982;11.516;2023-03-01T07:28:27;37.45;;;18.50;;
71106;SDS011;58763;47.982;11.516;2023-03-01T07:30:53;37.35;;;17.27;;
71106;SDS011;58763;47.982;11.516;2023-03-01T07:33:19;32.95;;;16.55;;
71106;SDS011;58763;47.982;11.516;2023-03-01T07:35:45;36.30;;;17.33;;
71106;SDS011;58763;47.982;11.516;2023-03-01T07:38:11;33.90;;;17.30;;
71106;SDS011;58763;47.982;11.516;2023-03-01T07:40:37;34.58;;;17.35;;
71106;SDS011;58763;47.982;11.516;2023-03-01T07:43:02;34.10;;;17.15;;
71106;SDS011;58763;47.982;11.516;2023-03-01T07:45:28;35.17;;;17.60;;
71106;SDS011;58763;47.982;11.516;2023-03-01T07:47:54;34.67;;;17.02;;
71106;SDS011;58763;47.982;11.516;2023-03-01T07:50:21;33.50;;;16.83;;
71106;SDS011;58763;47.982;11.516;2023-03-01T07:52:47;33.90;;;16.90;;
71106;SDS011;58763;47.982;11.516;2023-03-01T07:55:14;34.85;;;17.48;;
71106;SDS011;58763;47.982;11.516;2023-03-01T07:57:40;34.38;;;17.27;;
71106;SDS011;58763;47.982;11.516;2023-03-01T08:00:06;33.15;;;16.90;;
71106;SDS011;58763;47.982;11.516;2023-03-01T08:02:33;33.97;;;17.50;;
71106;SDS011;58763;47.982;11.516;2023-03-01T08:04:58;37.00;;;17.48;;
71106;SDS011;58763;47.982;11.516;2023-03-01T08:07:24;35.00;;;17.58;;
71106;SDS011;58763;47.982;11.516;2023-03-01T08:09:50;38.45;;;17.38;;
71106;SDS011;58763;47.982;11.516;2023-03-01T08:12:15;33.33;;;16.90;;
71106;SDS011;58763;47.982;11.516;2023-03-01T08:14:43;38.65;;;17.90;;
71106;SDS011;58763;47.982;11.516;2023-03-01T08:17:09;36.92;;;17.50;;
71106;SDS011;58763;47.982;11.516;2023-03-01T08:19:35;34.67;;;17.38;;
71106;SDS011;58763;47.982;11.516;2023-03-01T08:22:03;33.85;;;16.38;;
71106;SDS011;58763;47.982;11.516;2023-03-01T08:24:29;32.38;;;17.17;;
71106;SDS011;58763;47.982;11.516;2023-03-01T08:26:54;35.30;;;17.70;;
71106;SDS011;58763;47.982;11.516;2023-03-01T08:29:20;33.70;;;17.52;;
71106;SDS011;58763;47.982;11.516;2023-03-01T08:31:46;35.80;;;16.77;;
71106;SDS011;58763;47.982;11.516;2023-03-01T08:34:13;38.83;;;18.70;;
71106;SDS011;58763;47.982;11.516;2023-03-01T08:36:41;33.00;;;16.33;;
71106;SDS011;58763;47.982;11.516;2023-03-01T08:39:09;36.25;;;17.52;;
71106;SDS011;58763;47.982;11.516;2023-03-01T08:41:36;35.05;;;17.65;;
71106;SDS011;58763;47.982;11.516;2023-03-01T08:44:02;31.88;;;16.70;;
71106;SDS011;58763;47.982;11.516;2023-03-01T08:46:29;34.45;;;17.60;;
71106;SDS011;58763;47.982;11.516;2023-03-01T08:48:59;32.80;;;16.40;;
71106;SDS011;58763;47.982;11.516;2023-03-01T08:51:25;35.60;;;17.10;;
71106;SDS011;58763;47.982;11.516;2023-03-01T08:53:51;38.50;;;16.45;;
71106;SDS011;58763;47.982;11.516;2023-03-01T08:56:17;34.80;;;16.58;;
71106;SDS011;58763;47.982;11.516;2023-03-01T08:58:47;36.30;;;17.98;;
71106;SDS011;58763;47.982;11.516;2023-03-01T09:01:14;33.72;;;16.95;;
71106;SDS011;58763;47.982;11.516;2023-03-01T09:03:41;37.05;;;18.23;;
71106;SDS011;58763;47.982;11.516;2023-03-01T09:06:07;34.03;;;17.23;;
71106;SDS011;58763;47.982;11.516;2023-03-01T09:08:34;33.75;;;16.65;;
71106;SDS011;58763;47.982;11.516;2023-03-01T09:11:04;34.45;;;17.17;;
71106;SDS011;58763;47.982;11.516;2023-03-01T09:13:31;33.05;;;17.17;;
71106;SDS011;58763;47.982;11.516;2023-03-01T09:15:57;33.35;;;16.65;;
71106;SDS011;58763;47.982;11.516;2023-03-01T09:18:24;35.88;;;18.02;;
71106;SDS011;58763;47.982;11.516;2023-03-01T09:20:49;33.15;;;16.20;;
71106;SDS011;58763;47.982;11.516;2023-03-01T09:23:15;34.38;;;16.63;;
71106;SDS011;58763;47.982;11.516;2023-03-01T09:25:40;33.85;;;17.33;;
71106;SDS011;58763;47.982;11.516;2023-03-01T09:28:06;37.22;;;17.75;;
71106;SDS011;58763;47.982;11.516;2023-03-01T09:30:31;33.55;;;16.88;;
71106;SDS011;58763;47.982;11.516;2023-03-01T09:32:57;36.92;;;17.77;;
71106;SDS011;58763;47.982;11.516;2023-03-01T09:35:23;38.70;;;18.38;;
71106;SDS011;58763;47.982;11.516;2023-03-01T09:37:48;36.53;;;18.30;;
71106;SDS011;58763;47.982;11.516;2023-03-01T09:40:24;38.50;;;17.23;;
71106;SDS011;58763;47.982;11.516;2023-03-01T09:43:00;35.25;;;16.40;;
71106;SDS011;58763;47.982;11.516;2023-03-01T09:45:34;36.58;;;18.00;;
71106;SDS011;58763;47.982;11.516;2023-03-01T09:48:03;33.25;;;17.13;;
71106;SDS011;58763;47.982;11.516;2023-03-01T09:50:39;33.28;;;17.65;;
71106;SDS011;58763;47.982;11.516;2023-03-01T09:53:11;34.50;;;17.77;;
71106;SDS011;58763;47.982;11.516;2023-03-01T09:55:44;36.38;;;17.65;;
71106;SDS011;58763;47.982;11.516;2023-03-01T10:04:12;35.33;;;16.73;;
71106;SDS011;58763;47.982;11.516;2023-03-01T10:09:40;35.40;;;17.38;;
71106;SDS011;58763;47.982;11.516;2023-03-01T10:12:09;32.25;;;15.80;;
71106;SDS011;58763;47.982;11.516;2023-03-01T10:17:51;29.88;;;15.45;;
71106;SDS011;58763;47.982;11.516;2023-03-01T10:20:14;33.05;;;15.40;;
71106;SDS011;58763;47.982;11.516;2023-03-01T10:22:40;30.90;;;15.35;;
71106;SDS011;58763;47.982;11.516;2023-03-01T10:25:06;30.25;;;15.23;;
71106;SDS011;58763;47.982;11.516;2023-03-01T10:27:45;32.92;;;15.95;;
71106;SDS011;58763;47.982;11.516;2023-03-01T10:30:21;36.13;;;15.80;;
71106;SDS011;58763;47.982;11.516;2023-03-01T10:32:58;34.20;;;15.80;;
71106;SDS011;58763;47.982;11.516;2023-03-01T10:35:26;33.58;;;15.98;;
71106;SDS011;58763;47.982;11.516;2023-03-01T10:38:04;36.67;;;16.65;;
71106;SDS011;58763;47.982;11.516;2023-03-01T10:40:32;36.20;;;16.85;;
71106;SDS011;58763;47.982;11.516;2023-03-01T10:43:03;35.47;;;17.63;;
71106;SDS011;58763;47.982;11.516;2023-03-01T10:45:31;35.38;;;17.95;;
71106;SDS011;58763;47.982;11.516;2023-03-01T10:51:06;39.40;;;16.50;;
71106;SDS011;58763;47.982;11.516;2023-03-01T10:53:41;34.53;;;16.77;;
71106;SDS011;58763;47.982;11.516;2023-03-01T10:56:09;36.28;;;17.98;;
71106;SDS011;58763;47.982;11.516;2023-03-01T10:59:02;35.28;;;17.08;;
71106;SDS011;58763;47.982;11.516;2023-03-01T11:01:37;32.58;;;16.92;;
71106;SDS011;58763;47.982;11.516;2023-03-01T11:06:35;34.38;;;17.45;;
71106;SDS011;58763;47.982;11.516;2023-03-01T11:09:21;32.72;;;16.77;;
71106;SDS011;58763;47.982;11.516;2023-03-01T11:11:57;34.88;;;16.38;;
71106;SDS011;58763;47.982;11.516;2023-03-01T11:14:26;34.88;;;16.30;;
71106;SDS011;58763;47.982;11.516;2023-03-01T11:17:03;40.15;;;17.58;;
71106;SDS011;58763;47.982;11.516;2023-03-01T11:19:31;36.90;;;17.27;;
71106;SDS011;58763;47.982;11.516;2023-03-01T11:24:42;34.22;;;16.85;;
71106;SDS011;58763;47.982;11.516;2023-03-01T11:27:16;37.17;;;17.23;;
71106;SDS011;58763;47.982;11.516;2023-03-01T11:29:58;35.90;;;17.40;;
71106;SDS011;58763;47.982;11.516;2023-03-01T11:32:28;35.17;;;16.20;;
71106;SDS011;58763;47.982;11.516;2023-03-01T11:35:17;32.55;;;16.33;;
71106;SDS011;58763;47.982;11.516;2023-03-01T11:40:26;35.95;;;17.23;;
71106;SDS011;58763;47.982;11.516;2023-03-01T11:43:11;37.15;;;16.35;;
71106;SDS011;58763;47.982;11.516;2023-03-01T11:45:47;33.67;;;16.40;;
71106;SDS011;58763;47.982;11.516;2023-03-01T11:50:51;32.63;;;15.73;;
71106;SDS011;58763;47.982;11.516;2023-03-01T12:01:48;30.63;;;15.23;;
71106;SDS011;58763;47.982;11.516;2023-03-01T12:14:47;33.67;;;15.80;;
71106;SDS011;58763;47.982;11.516;2023-03-01T12:17:48;31.20;;;15.00;;
71106;SDS011;58763;47.982;11.516;2023-03-01T12:31:45;30.50;;;14.10;;
71106;SDS011;58763;47.982;11.516;2023-03-01T12:45:44;29.77;;;14.35;;
71106;SDS011;58763;47.982;11.516;2023-03-01T12:51:04;29.05;;;14.27;;
71106;SDS011;58763;47.982;11.516;2023-03-01T12:53:36;31.45;;;14.20;;
71106;SDS011;58763;47.982;11.516;2023-03-01T12:56:07;29.67;;;14.35;;
71106;SDS011;58763;47.982;11.516;2023-03-01T12:58:39;26.75;;;13.68;;
71106;SDS011;58763;47.982;11.516;2023-03-01T13:15:30;29.15;;;14.48;;
71106;SDS011;58763;47.982;11.516;2023-03-01T13:18:01;29.50;;;14.32;;
71106;SDS011;58763;47.982;11.516;2023-03-01T13:23:10;26.98;;;14.73;;
71106;SDS011;58763;47.982;11.516;2023-03-01T13:29:10;30.88;;;15.30;;
71106;SDS011;58763;47.982;11.516;2023-03-01T13:33:54;29.17;;;14.43;;
71106;SDS011;58763;47.982;11.516;2023-03-01T13:38:56;30.63;;;15.55;;
71106;SDS011;58763;47.982;11.516;2023-03-01T13:46:50;31.77;;;16.42;;
71106;SDS011;58763;47.982;11.516;2023-03-01T13:49:19;31.45;;;16.27;;
71106;SDS011;58763;47.982;11.516;2023-03-01T13:51:47;31.50;;;16.38;;
71106;SDS011;58763;47.982;11.516;2023-03-01T13:54:14;30.23;;;16.30;;
71106;SDS011;58763;47.982;11.516;2023-03-01T13:56:44;28.27;;;15.88;;
71106;SDS011;58763;47.982;11.516;2023-03-01T13:59:14;31.40;;;16.90;;
71106;SDS011;58763;47.982;11.516;2023-03-01T14:01:41;29.17;;;16.48;;
71106;SDS011;58763;47.982;11.516;2023-03-01T14:04:24;32.70;;;16.58;;
71106;SDS011;58763;47.982;11.516;2023-03-01T14:06:52;32.38;;;15.88;;
71106;SDS011;58763;47.982;11.516;2023-03-01T14:09:33;29.92;;;16.38;;
71106;SDS011;58763;47.982;11.516;2023-03-01T14:14:52;27.58;;;15.32;;
71106;SDS011;58763;47.982;11.516;2023-03-01T14:17:29;29.52;;;16.13;;
71106;SDS011;58763;47.982;11.516;2023-03-01T14:20:23;28.45;;;15.63;;
71106;SDS011;58763;47.982;11.516;2023-03-01T14:22:52;28.92;;;15.65;;
71106;SDS011;58763;47.982;11.516;2023-03-01T14:30:47;29.10;;;16.33;;
71106;SDS011;58763;47.982;11.516;2023-03-01T14:33:19;32.25;;;16.85;;
71106;SDS011;58763;47.982;11.516;2023-03-01T14:38:30;32.40;;;17.02;;
71106;SDS011;58763;47.982;11.516;2023-03-01T14:41:19;29.20;;;16.27;;
71106;SDS011;58763;47.982;11.516;2023-03-01T14:44:12;29.70;;;16.50;;
71106;SDS011;58763;47.982;11.516;2023-03-01T14:46:38;33.30;;;17.17;;
71106;SDS011;58763;47.982;11.516;2023-03-01T14:49:09;28.60;;;16.40;;
71106;SDS011;58763;47.982;11.516;2023-03-01T14:51:38;30.08;;;16.77;;
71106;SDS011;58763;47.982;11.516;2023-03-01T14:56:50;32.55;;;17.08;;
71106;SDS011;58763;47.982;11.516;2023-03-01T14:59:24;32.60;;;17.58;;
71106;SDS011;58763;47.982;11.516;2023-03-01T15:01:50;33.25;;;18.50;;
71106;SDS011;58763;47.982;11.516;2023-03-01T15:04:18;34.22;;;17.85;;
71106;SDS011;58763;47.982;11.516;2023-03-01T15:06:45;36.10;;;18.58;;
71106;SDS011;58763;47.982;11.516;2023-03-01T15:09:15;34.22;;;18.90;;
71106;SDS011;58763;47.982;11.516;2023-03-01T15:11:42;34.97;;;19.20;;
71106;SDS011;58763;47.982;11.516;2023-03-01T15:14:25;33.20;;;18.02;;
71106;SDS011;58763;47.982;11.516;2023-03-01T15:16:52;35.58;;;18.63;;
71106;SDS011;58763;47.982;11.516;2023-03-01T15:19:18;31.73;;;17.92;;
71106;SDS011;58763;47.982;11.516;2023-03-01T15:21:44;33.72;;;18.13;;
71106;SDS011;58763;47.982;11.516;2023-03-01T15:27:13;33.28;;;18.10;;
71106;SDS011;58763;47.982;11.516;2023-03-01T15:29:39;33.33;;;17.85;;
71106;SDS011;58763;47.982;11.516;2023-03-01T15:35:32;32.08;;;17.52;;
71106;SDS011;58763;47.982;11.516;2023-03-01T15:38:30;33.22;;;18.05;;
71106;SDS011;58763;47.982;11.516;2023-03-01T15:40:57;33.50;;;16.73;;
71106;SDS011;58763;47.982;11.516;2023-03-01T15:43:37;35.28;;;18.58;;
71106;SDS011;58763;47.982;11.516;2023-03-01T15:46:29;34.80;;;18.23;;
71106;SDS011;58763;47.982;11.516;2023-03-01T15:48:58;32.13;;;18.23;;
71106;SDS011;58763;47.982;11.516;2023-03-01T15:51:30;36.67;;;18.95;;
71106;SDS011;58763;47.982;11.516;2023-03-01T15:53:59;32.85;;;18.02;;
71106;SDS011;58763;47.982;11.516;2023-03-01T15:56:30;33.65;;;18.20;;
71106;SDS011;58763;47.982;11.516;2023-03-01T15:58:59;35.17;;;18.75;;
71106;SDS011;58763;47.982;11.516;2023-03-01T16:01:27;33.83;;;18.75;;
71106;SDS011;58763;47.982;11.516;2023-03-01T16:03:53;31.85;;;18.27;;
71106;SDS011;58763;47.982;11.516;2023-03-01T16:06:19;36.80;;;19.63;;
71106;SDS011;58763;47.982;11.516;2023-03-01T16:08:44;33.67;;;18.40;;
71106;SDS011;58763;47.982;11.516;2023-03-01T16:11:14;35.80;;;19.38;;
71106;SDS011;58763;47.982;11.516;2023-03-01T16:13:42;34.75;;;17.65;;
71106;SDS011;58763;47.982;11.516;2023-03-01T16:16:09;38.30;;;19.30;;
71106;SDS011;58763;47.982;11.516;2023-03-01T16:18:37;39.10;;;19.30;;
71106;SDS011;58763;47.982;11.516;2023-03-01T16:21:04;35.47;;;18.55;;
71106;SDS011;58763;47.982;11.516;2023-03-01T16:23:30;35.45;;;19.70;;
71106;SDS011;58763;47.982;11.516;2023-03-01T16:25:59;32.45;;;17.75;;
71106;SDS011;58763;47.982;11.516;2023-03-01T16:28:25;36.00;;;19.50;;
71106;SDS011;58763;47.982;11.516;2023-03-01T16:30:51;33.33;;;18.60;;
71106;SDS011;58763;47.982;11.516;2023-03-01T16:33:17;33.22;;;19.23;;